Terminal Aerodrome Forecast
Issued by NWS

Home | Current Version | Previous Version | Text Only | Print | Product List | Glossary On
Versions: 1 2 3 4 5 6 7 8 9 10 11 12 13 14 15 16 17 18 19 20 21 22 23
000
FTPQ31 PGUM 050530
TAFGUM
TAF

TAF
PTYA 050530Z 0506/0606 34025G45KT 3SM SHRA BKN015 OVC030
      TEMPO 0506/0510 2SM +SHRA OVC015
     FM051100 33040G55KT 3SM +RA SCT007 OVC015
     FM051400 30050G70KT 2SM +SHRA SCT005 OVC010
     FM052300 24040G60KT 3SM +SHRA SCT007 OVC020
     FM060300 23020G30KT 5SM SHRA SCT010 OVC030=

USA.gov is the U.S. government's official web portal to all federal, state and local government web resources and services.